sensor_id;sensor_type;location;lat;lon;timestamp;P1;durP1;ratioP1;P2;durP2;ratioP2
59314;SDS011;46521;50.160;20.802;2023-09-12T00:01:51;30.83;;;24.23;;
59314;SDS011;46521;50.160;20.802;2023-09-12T00:11:53;27.30;;;23.00;;
59314;SDS011;46521;50.160;20.802;2023-09-12T00:21:55;28.58;;;24.15;;
59314;SDS011;46521;50.160;20.802;2023-09-12T00:31:57;30.15;;;25.20;;
59314;SDS011;46521;50.160;20.802;2023-09-12T00:41:58;28.15;;;24.38;;
59314;SDS011;46521;50.160;20.802;2023-09-12T00:52:00;26.25;;;22.33;;
59314;SDS011;46521;50.160;20.802;2023-09-12T01:02:02;24.23;;;21.68;;
59314;SDS011;46521;50.160;20.802;2023-09-12T01:12:04;23.78;;;20.05;;
59314;SDS011;46521;50.160;20.802;2023-09-12T01:32:16;22.98;;;19.55;;
59314;SDS011;46521;50.160;20.802;2023-09-12T01:42:20;23.57;;;19.37;;
59314;SDS011;46521;50.160;20.802;2023-09-12T01:52:24;23.63;;;19.58;;
59314;SDS011;46521;50.160;20.802;2023-09-12T02:02:27;25.43;;;21.13;;
59314;SDS011;46521;50.160;20.802;2023-09-12T02:12:29;23.00;;;20.20;;
59314;SDS011;46521;50.160;20.802;2023-09-12T02:22:30;22.73;;;18.93;;
59314;SDS011;46521;50.160;20.802;2023-09-12T02:32:31;23.85;;;19.30;;
59314;SDS011;46521;50.160;20.802;2023-09-12T02:42:33;24.78;;;20.20;;
59314;SDS011;46521;50.160;20.802;2023-09-12T02:52:34;23.80;;;18.43;;
59314;SDS011;46521;50.160;20.802;2023-09-12T03:02:36;23.90;;;18.90;;
59314;SDS011;46521;50.160;20.802;2023-09-12T03:12:37;20.65;;;18.00;;
59314;SDS011;46521;50.160;20.802;2023-09-12T03:22:39;23.43;;;18.60;;
59314;SDS011;46521;50.160;20.802;2023-09-12T03:32:40;23.20;;;17.53;;
59314;SDS011;46521;50.160;20.802;2023-09-12T03:42:42;23.02;;;18.58;;
59314;SDS011;46521;50.160;20.802;2023-09-12T03:52:44;23.50;;;19.18;;
59314;SDS011;46521;50.160;20.802;2023-09-12T04:02:45;21.37;;;17.83;;
59314;SDS011;46521;50.160;20.802;2023-09-12T04:12:47;21.35;;;17.60;;
59314;SDS011;46521;50.160;20.802;2023-09-12T04:22:49;25.08;;;18.60;;
59314;SDS011;46521;50.160;20.802;2023-09-12T04:32:50;23.18;;;17.98;;
59314;SDS011;46521;50.160;20.802;2023-09-12T04:42:52;21.18;;;15.60;;
59314;SDS011;46521;50.160;20.802;2023-09-12T04:52:54;33.05;;;19.33;;
59314;SDS011;46521;50.160;20.802;2023-09-12T05:02:56;24.17;;;18.60;;
59314;SDS011;46521;50.160;20.802;2023-09-12T05:12:57;25.03;;;18.63;;
59314;SDS011;46521;50.160;20.802;2023-09-12T05:22:59;19.63;;;17.00;;
59314;SDS011;46521;50.160;20.802;2023-09-12T05:33:00;24.45;;;18.45;;
59314;SDS011;46521;50.160;20.802;2023-09-12T05:43:02;26.20;;;21.60;;
59314;SDS011;46521;50.160;20.802;2023-09-12T05:53:04;23.77;;;17.33;;
59314;SDS011;46521;50.160;20.802;2023-09-12T06:03:05;22.35;;;18.18;;
59314;SDS011;46521;50.160;20.802;2023-09-12T06:13:07;21.08;;;18.85;;
59314;SDS011;46521;50.160;20.802;2023-09-12T06:23:09;21.65;;;18.43;;
59314;SDS011;46521;50.160;20.802;2023-09-12T06:33:11;17.60;;;15.35;;
59314;SDS011;46521;50.160;20.802;2023-09-12T06:43:13;21.33;;;16.53;;
59314;SDS011;46521;50.160;20.802;2023-09-12T06:53:15;18.15;;;15.63;;
59314;SDS011;46521;50.160;20.802;2023-09-12T07:03:16;15.85;;;13.90;;
59314;SDS011;46521;50.160;20.802;2023-09-12T07:13:18;17.38;;;14.18;;
59314;SDS011;46521;50.160;20.802;2023-09-12T07:23:20;16.80;;;14.23;;
59314;SDS011;46521;50.160;20.802;2023-09-12T07:33:21;16.63;;;13.98;;
59314;SDS011;46521;50.160;20.802;2023-09-12T07:43:23;15.90;;;13.85;;
59314;SDS011;46521;50.160;20.802;2023-09-12T07:53:24;14.23;;;12.65;;
59314;SDS011;46521;50.160;20.802;2023-09-12T08:03:26;16.03;;;12.70;;
59314;SDS011;46521;50.160;20.802;2023-09-12T08:13:29;15.23;;;12.63;;
59314;SDS011;46521;50.160;20.802;2023-09-12T08:23:31;18.70;;;13.67;;
59314;SDS011;46521;50.160;20.802;2023-09-12T08:33:32;19.90;;;17.98;;
59314;SDS011;46521;50.160;20.802;2023-09-12T08:43:34;15.83;;;12.80;;
59314;SDS011;46521;50.160;20.802;2023-09-12T08:53:36;14.53;;;12.47;;
59314;SDS011;46521;50.160;20.802;2023-09-12T09:03:38;14.40;;;12.90;;
59314;SDS011;46521;50.160;20.802;2023-09-12T09:13:43;13.45;;;11.65;;
59314;SDS011;46521;50.160;20.802;2023-09-12T09:23:45;14.88;;;11.53;;
59314;SDS011;46521;50.160;20.802;2023-09-12T09:43:52;14.05;;;11.35;;
59314;SDS011;46521;50.160;20.802;2023-09-12T09:53:54;12.75;;;10.63;;
59314;SDS011;46521;50.160;20.802;2023-09-12T10:04:00;12.80;;;9.70;;
59314;SDS011;46521;50.160;20.802;2023-09-12T10:14:04;10.80;;;9.50;;
59314;SDS011;46521;50.160;20.802;2023-09-12T10:24:06;12.43;;;9.33;;
59314;SDS011;46521;50.160;20.802;2023-09-12T10:34:10;12.27;;;9.43;;
59314;SDS011;46521;50.160;20.802;2023-09-12T10:44:17;11.68;;;9.53;;
59314;SDS011;46521;50.160;20.802;2023-09-12T10:54:26;11.88;;;9.45;;
59314;SDS011;46521;50.160;20.802;2023-09-12T11:04:42;10.63;;;8.50;;
59314;SDS011;46521;50.160;20.802;2023-09-12T11:15:02;11.67;;;8.63;;
59314;SDS011;46521;50.160;20.802;2023-09-12T11:25:27;13.03;;;9.30;;
59314;SDS011;46521;50.160;20.802;2023-09-12T11:45:30;12.20;;;9.95;;
59314;SDS011;46521;50.160;20.802;2023-09-12T11:55:34;11.40;;;10.20;;
59314;SDS011;46521;50.160;20.802;2023-09-12T12:05:46;11.90;;;9.80;;
59314;SDS011;46521;50.160;20.802;2023-09-12T12:25:50;10.88;;;9.20;;
59314;SDS011;46521;50.160;20.802;2023-09-12T12:35:58;10.93;;;8.80;;
59314;SDS011;46521;50.160;20.802;2023-09-12T12:46:03;11.80;;;8.80;;
59314;SDS011;46521;50.160;20.802;2023-09-12T12:56:17;11.77;;;8.73;;
59314;SDS011;46521;50.160;20.802;2023-09-12T13:06:19;10.33;;;8.68;;
59314;SDS011;46521;50.160;20.802;2023-09-12T13:16:21;10.60;;;8.83;;
59314;SDS011;46521;50.160;20.802;2023-09-12T13:26:23;10.70;;;9.10;;
59314;SDS011;46521;50.160;20.802;2023-09-12T13:36:24;10.80;;;9.23;;
59314;SDS011;46521;50.160;20.802;2023-09-12T13:46:26;9.83;;;7.80;;
59314;SDS011;46521;50.160;20.802;2023-09-12T13:56:28;12.67;;;9.87;;
59314;SDS011;46521;50.160;20.802;2023-09-12T14:06:29;11.20;;;8.95;;
59314;SDS011;46521;50.160;20.802;2023-09-12T14:16:31;12.35;;;9.40;;
59314;SDS011;46521;50.160;20.802;2023-09-12T14:26:33;10.88;;;8.88;;
59314;SDS011;46521;50.160;20.802;2023-09-12T14:36:34;12.13;;;8.57;;
59314;SDS011;46521;50.160;20.802;2023-09-12T14:46:36;9.83;;;7.98;;
59314;SDS011;46521;50.160;20.802;2023-09-12T14:56:37;11.20;;;9.28;;
59314;SDS011;46521;50.160;20.802;2023-09-12T15:06:39;12.33;;;8.70;;
59314;SDS011;46521;50.160;20.802;2023-09-12T15:16:41;9.80;;;8.10;;
59314;SDS011;46521;50.160;20.802;2023-09-12T15:26:42;11.57;;;8.77;;
59314;SDS011;46521;50.160;20.802;2023-09-12T15:36:45;13.00;;;9.13;;
59314;SDS011;46521;50.160;20.802;2023-09-12T15:46:47;11.33;;;8.90;;
59314;SDS011;46521;50.160;20.802;2023-09-12T15:56:49;11.25;;;9.45;;
59314;SDS011;46521;50.160;20.802;2023-09-12T16:06:51;13.10;;;9.35;;
59314;SDS011;46521;50.160;20.802;2023-09-12T16:16:52;13.73;;;10.70;;
59314;SDS011;46521;50.160;20.802;2023-09-12T16:26:54;14.25;;;11.48;;
59314;SDS011;46521;50.160;20.802;2023-09-12T16:36:56;13.70;;;10.00;;
59314;SDS011;46521;50.160;20.802;2023-09-12T16:46:58;15.85;;;11.58;;
59314;SDS011;46521;50.160;20.802;2023-09-12T16:56:59;16.13;;;12.40;;
59314;SDS011;46521;50.160;20.802;2023-09-12T17:07:01;24.60;;;19.37;;
59314;SDS011;46521;50.160;20.802;2023-09-12T17:17:02;40.18;;;26.50;;
59314;SDS011;46521;50.160;20.802;2023-09-12T17:27:04;32.13;;;23.88;;
59314;SDS011;46521;50.160;20.802;2023-09-12T17:37:06;30.80;;;23.23;;
59314;SDS011;46521;50.160;20.802;2023-09-12T17:47:08;34.80;;;25.98;;
59314;SDS011;46521;50.160;20.802;2023-09-12T17:57:10;44.13;;;33.93;;
59314;SDS011;46521;50.160;20.802;2023-09-12T18:07:14;47.57;;;37.50;;
59314;SDS011;46521;50.160;20.802;2023-09-12T18:17:17;66.20;;;49.35;;
59314;SDS011;46521;50.160;20.802;2023-09-12T18:27:19;74.13;;;55.08;;
59314;SDS011;46521;50.160;20.802;2023-09-12T18:37:20;90.20;;;65.78;;
59314;SDS011;46521;50.160;20.802;2023-09-12T18:47:22;83.93;;;61.03;;
59314;SDS011;46521;50.160;20.802;2023-09-12T18:57:23;67.33;;;51.13;;
59314;SDS011;46521;50.160;20.802;2023-09-12T19:07:25;74.60;;;52.53;;
59314;SDS011;46521;50.160;20.802;2023-09-12T19:17:27;79.60;;;59.45;;
59314;SDS011;46521;50.160;20.802;2023-09-12T19:27:30;74.67;;;55.23;;
59314;SDS011;46521;50.160;20.802;2023-09-12T19:37:33;67.15;;;50.58;;
59314;SDS011;46521;50.160;20.802;2023-09-12T19:47:49;67.78;;;52.28;;
59314;SDS011;46521;50.160;20.802;2023-09-12T19:57:50;62.75;;;49.03;;
59314;SDS011;46521;50.160;20.802;2023-09-12T20:07:52;60.33;;;45.93;;
59314;SDS011;46521;50.160;20.802;2023-09-12T20:18:11;59.20;;;44.55;;
59314;SDS011;46521;50.160;20.802;2023-09-12T20:28:13;58.07;;;45.37;;
59314;SDS011;46521;50.160;20.802;2023-09-12T20:38:15;51.33;;;42.13;;
59314;SDS011;46521;50.160;20.802;2023-09-12T20:48:16;49.50;;;38.43;;
59314;SDS011;46521;50.160;20.802;2023-09-12T20:58:19;47.50;;;40.33;;
59314;SDS011;46521;50.160;20.802;2023-09-12T21:08:20;46.10;;;38.10;;
59314;SDS011;46521;50.160;20.802;2023-09-12T21:18:22;44.83;;;37.28;;
59314;SDS011;46521;50.160;20.802;2023-09-12T21:28:23;42.53;;;34.83;;
59314;SDS011;46521;50.160;20.802;2023-09-12T21:38:25;42.40;;;34.45;;
59314;SDS011;46521;50.160;20.802;2023-09-12T21:48:27;45.45;;;35.70;;
59314;SDS011;46521;50.160;20.802;2023-09-12T21:58:28;41.85;;;33.98;;
59314;SDS011;46521;50.160;20.802;2023-09-12T22:08:30;39.88;;;31.43;;
59314;SDS011;46521;50.160;20.802;2023-09-12T22:18:32;38.30;;;30.25;;
59314;SDS011;46521;50.160;20.802;2023-09-12T22:28:34;30.03;;;24.68;;
59314;SDS011;46521;50.160;20.802;2023-09-12T22:38:35;33.98;;;27.38;;
59314;SDS011;46521;50.160;20.802;2023-09-12T22:48:37;39.08;;;28.85;;
59314;SDS011;46521;50.160;20.802;2023-09-12T22:58:38;34.15;;;26.55;;
59314;SDS011;46521;50.160;20.802;2023-09-12T23:08:40;36.65;;;29.58;;
59314;SDS011;46521;50.160;20.802;2023-09-12T23:18:41;39.60;;;29.45;;
59314;SDS011;46521;50.160;20.802;2023-09-12T23:28:43;39.45;;;30.30;;
59314;SDS011;46521;50.160;20.802;2023-09-12T23:38:45;35.00;;;28.60;;
59314;SDS011;46521;50.160;20.802;2023-09-12T23:48:47;34.10;;;27.27;;
59314;SDS011;46521;50.160;20.802;2023-09-12T23:58:48;30.85;;;26.05;;
